Camden, IN (46917)

2:57 PM EDT on August 30, 2014 (GMT -0400)
Carroll Jr/Sr High School | Change Station
CLOSE
Current Station
Personal Weather Station
Location: Flora, IN
Elevation: 715 ft
Nearby Weather Stations

Elev 715 ft 40.55 °N, 86.48 °W | Updated 25 seconds ago

Partly Cloudy
Partly Cloudy
82.4 °F
Feels Like 80 °F
N
16.9
Wind Variable Wind from South
Gusts 16.9 mph

Today
High -- | Low -- °F
--% Chance of Precip.
Yesterday
High -- | Low -- °F
Precip. -- in
7:11 AM 8:21 PM
Waxing Crescent, 24% visible
Pressure 29.95 in
Visibility 10.0 miles
Clouds Scattered Clouds 2800 ft
Heat Index 80 °F
Dew Point 28 °F
Humidity 14%
Rainfall 0.00 in
Snow Depth Not available.
UV 7 out of 12
Pollen 9.30 out of 12
Air Quality Not available.
Flu Activity Not available.
METAR KGGP 301835Z AUTO 21016G22KT 10SM SCT028 27/19 A2995 RMK AO2

More Conditions Fewer Conditions

Pressure 29.95 in
Visibility 10.0 miles
Clouds Scattered Clouds 2800 ft
Heat Index 80 °F
Dew Point 28 °F
Humidity 14%
Rainfall 0.00 in
Snow Depth Not available.
UV 7 out of 12
Pollen 9.30 out of 12
Air Quality Not available.
Flu Activity Not available.
METAR KGGP 301835Z AUTO 21016G22KT 10SM SCT028 27/19 A2995 RMK AO2

More Conditions Fewer Conditions

10-Day Weather Forecast

Almanac

Astronomy

Aug. 30, 2014 Rise Set
Actual Time 7:11 AM EDT 8:21 PM EDT
Civil Twilight 6:43 AM EDT 8:49 PM EDT
Nautical Twilight 6:09 AM EDT 9:22 PM EDT
Astronomical Twilight 5:34 AM EDT 9:58 PM EDT
Moon 11:59 AM EDT 10:53 PM EDT
Length of Visible Light 14h 06m
Length of Day
13h 10m
Tomorrow will be 2m 33s shorter.
Waxing Crescent, 24% of the Moon is Illuminated
Today
Waxing Crescent
Sep 2
First Quarter
Sep 8
Full
Sep 15
Last Quarter
Sep 24
New

Today's Extremes

State Highs State Lows

Community

WunderPhotos

Upload Photos

1,748,593 photos uploaded!

WunderBlogs® & News

Nearby

Snow Depth

Station Depth Elevation
No new snow has been reported.

Earthquake Activity

City Distance Mag. Time & Date
No recent earthquake activity has been reported nearby.
Minimum magnitude displayed is 2.5.

Coastal Water Temperatures

Place Temperature
No Stations Reporting

Nearby Weather Stations